sensor_id;sensor_type;location;lat;lon;timestamp;P1;durP1;ratioP1;P2;durP2;ratioP2
68910;SDS011;55953;51.650;-0.522;2023-12-07T00:00:02;8.00;;;4.70;;
68910;SDS011;55953;51.650;-0.522;2023-12-07T00:02:32;8.50;;;4.50;;
68910;SDS011;55953;51.650;-0.522;2023-12-07T00:05:00;10.70;;;4.80;;
68910;SDS011;55953;51.650;-0.522;2023-12-07T00:07:28;12.40;;;4.90;;
68910;SDS011;55953;51.650;-0.522;2023-12-07T00:09:56;11.80;;;5.70;;
68910;SDS011;55953;51.650;-0.522;2023-12-07T00:12:24;12.10;;;5.80;;
68910;SDS011;55953;51.650;-0.522;2023-12-07T00:14:52;11.40;;;4.90;;
68910;SDS011;55953;51.650;-0.522;2023-12-07T00:17:20;9.50;;;4.60;;
68910;SDS011;55953;51.650;-0.522;2023-12-07T00:19:50;10.30;;;4.70;;
68910;SDS011;55953;51.650;-0.522;2023-12-07T00:22:21;10.10;;;5.40;;
68910;SDS011;55953;51.650;-0.522;2023-12-07T00:24:49;9.30;;;4.80;;
68910;SDS011;55953;51.650;-0.522;2023-12-07T00:27:18;9.40;;;4.90;;
68910;SDS011;55953;51.650;-0.522;2023-12-07T00:29:46;10.90;;;4.70;;
68910;SDS011;55953;51.650;-0.522;2023-12-07T00:32:14;10.40;;;4.60;;
68910;SDS011;55953;51.650;-0.522;2023-12-07T00:34:42;10.90;;;4.40;;
68910;SDS011;55953;51.650;-0.522;2023-12-07T00:37:10;10.60;;;4.80;;
68910;SDS011;55953;51.650;-0.522;2023-12-07T00:39:40;8.80;;;4.60;;
68910;SDS011;55953;51.650;-0.522;2023-12-07T00:42:09;9.60;;;4.60;;
68910;SDS011;55953;51.650;-0.522;2023-12-07T00:44:40;9.00;;;4.50;;
68910;SDS011;55953;51.650;-0.522;2023-12-07T00:47:09;7.90;;;4.40;;
68910;SDS011;55953;51.650;-0.522;2023-12-07T00:49:38;8.00;;;4.50;;
68910;SDS011;55953;51.650;-0.522;2023-12-07T00:52:09;10.30;;;4.10;;
68910;SDS011;55953;51.650;-0.522;2023-12-07T00:54:37;8.10;;;4.40;;
68910;SDS011;55953;51.650;-0.522;2023-12-07T00:57:06;10.90;;;4.00;;
68910;SDS011;55953;51.650;-0.522;2023-12-07T00:59:34;8.30;;;4.00;;
68910;SDS011;55953;51.650;-0.522;2023-12-07T01:02:03;9.00;;;4.30;;
68910;SDS011;55953;51.650;-0.522;2023-12-07T01:04:33;11.00;;;4.50;;
68910;SDS011;55953;51.650;-0.522;2023-12-07T01:07:01;8.40;;;4.50;;
68910;SDS011;55953;51.650;-0.522;2023-12-07T01:09:29;9.50;;;4.90;;
68910;SDS011;55953;51.650;-0.522;2023-12-07T01:11:57;8.90;;;4.00;;
68910;SDS011;55953;51.650;-0.522;2023-12-07T01:14:25;9.40;;;4.50;;
68910;SDS011;55953;51.650;-0.522;2023-12-07T01:16:53;7.80;;;4.10;;
68910;SDS011;55953;51.650;-0.522;2023-12-07T01:19:21;11.70;;;4.60;;
68910;SDS011;55953;51.650;-0.522;2023-12-07T01:21:49;9.60;;;4.40;;
68910;SDS011;55953;51.650;-0.522;2023-12-07T01:24:17;9.50;;;4.80;;
68910;SDS011;55953;51.650;-0.522;2023-12-07T01:26:45;8.00;;;4.20;;
68910;SDS011;55953;51.650;-0.522;2023-12-07T01:29:13;6.50;;;3.70;;
68910;SDS011;55953;51.650;-0.522;2023-12-07T01:31:41;10.90;;;4.20;;
68910;SDS011;55953;51.650;-0.522;2023-12-07T01:34:10;10.20;;;4.30;;
68910;SDS011;55953;51.650;-0.522;2023-12-07T01:36:38;10.70;;;4.60;;
68910;SDS011;55953;51.650;-0.522;2023-12-07T01:39:06;10.30;;;4.50;;
68910;SDS011;55953;51.650;-0.522;2023-12-07T01:41:36;9.00;;;4.10;;
68910;SDS011;55953;51.650;-0.522;2023-12-07T01:44:03;9.50;;;4.20;;
68910;SDS011;55953;51.650;-0.522;2023-12-07T01:46:32;6.50;;;3.90;;
68910;SDS011;55953;51.650;-0.522;2023-12-07T01:49:02;11.40;;;4.30;;
68910;SDS011;55953;51.650;-0.522;2023-12-07T01:51:30;10.10;;;3.80;;
68910;SDS011;55953;51.650;-0.522;2023-12-07T01:53:59;10.70;;;4.60;;
68910;SDS011;55953;51.650;-0.522;2023-12-07T01:56:27;8.30;;;4.00;;
68910;SDS011;55953;51.650;-0.522;2023-12-07T01:58:55;9.40;;;4.60;;
68910;SDS011;55953;51.650;-0.522;2023-12-07T02:01:23;11.40;;;3.90;;
68910;SDS011;55953;51.650;-0.522;2023-12-07T02:03:51;9.50;;;4.10;;
68910;SDS011;55953;51.650;-0.522;2023-12-07T02:06:19;7.00;;;3.70;;
68910;SDS011;55953;51.650;-0.522;2023-12-07T02:08:48;8.80;;;3.80;;
68910;SDS011;55953;51.650;-0.522;2023-12-07T02:11:16;7.30;;;3.80;;
68910;SDS011;55953;51.650;-0.522;2023-12-07T02:13:44;8.70;;;3.70;;
68910;SDS011;55953;51.650;-0.522;2023-12-07T02:16:30;11.80;;;3.90;;
68910;SDS011;55953;51.650;-0.522;2023-12-07T02:19:34;7.60;;;3.40;;
68910;SDS011;55953;51.650;-0.522;2023-12-07T02:22:32;10.80;;;3.70;;
68910;SDS011;55953;51.650;-0.522;2023-12-07T02:25:09;9.40;;;3.70;;
68910;SDS011;55953;51.650;-0.522;2023-12-07T02:27:42;7.70;;;3.60;;
68910;SDS011;55953;51.650;-0.522;2023-12-07T02:30:14;9.40;;;3.90;;
68910;SDS011;55953;51.650;-0.522;2023-12-07T02:32:44;9.00;;;3.90;;
68910;SDS011;55953;51.650;-0.522;2023-12-07T02:35:13;8.40;;;3.40;;
68910;SDS011;55953;51.650;-0.522;2023-12-07T02:37:44;9.10;;;3.30;;
68910;SDS011;55953;51.650;-0.522;2023-12-07T02:40:18;10.60;;;3.50;;
68910;SDS011;55953;51.650;-0.522;2023-12-07T02:42:53;7.70;;;3.40;;
68910;SDS011;55953;51.650;-0.522;2023-12-07T02:45:22;9.30;;;3.90;;
68910;SDS011;55953;51.650;-0.522;2023-12-07T02:47:50;7.80;;;3.60;;
68910;SDS011;55953;51.650;-0.522;2023-12-07T02:50:18;8.20;;;3.80;;
68910;SDS011;55953;51.650;-0.522;2023-12-07T02:52:46;9.50;;;3.80;;
68910;SDS011;55953;51.650;-0.522;2023-12-07T02:55:14;5.40;;;3.00;;
68910;SDS011;55953;51.650;-0.522;2023-12-07T02:57:42;8.90;;;3.90;;
68910;SDS011;55953;51.650;-0.522;2023-12-07T03:00:11;7.70;;;3.70;;
68910;SDS011;55953;51.650;-0.522;2023-12-07T03:02:41;9.30;;;3.70;;
68910;SDS011;55953;51.650;-0.522;2023-12-07T03:05:09;6.20;;;3.70;;
68910;SDS011;55953;51.650;-0.522;2023-12-07T03:07:37;6.80;;;3.50;;
68910;SDS011;55953;51.650;-0.522;2023-12-07T03:10:05;8.90;;;3.70;;
68910;SDS011;55953;51.650;-0.522;2023-12-07T03:12:34;7.10;;;3.40;;
68910;SDS011;55953;51.650;-0.522;2023-12-07T03:15:02;5.70;;;3.30;;
68910;SDS011;55953;51.650;-0.522;2023-12-07T03:17:32;8.50;;;3.20;;
68910;SDS011;55953;51.650;-0.522;2023-12-07T03:20:00;7.60;;;3.90;;
68910;SDS011;55953;51.650;-0.522;2023-12-07T03:22:28;6.00;;;3.20;;
68910;SDS011;55953;51.650;-0.522;2023-12-07T03:24:57;8.60;;;3.40;;
68910;SDS011;55953;51.650;-0.522;2023-12-07T03:27:25;10.40;;;3.80;;
68910;SDS011;55953;51.650;-0.522;2023-12-07T03:29:53;12.00;;;3.80;;
68910;SDS011;55953;51.650;-0.522;2023-12-07T03:32:21;8.00;;;3.60;;
68910;SDS011;55953;51.650;-0.522;2023-12-07T03:34:50;10.80;;;3.60;;
68910;SDS011;55953;51.650;-0.522;2023-12-07T03:37:18;8.90;;;3.60;;
68910;SDS011;55953;51.650;-0.522;2023-12-07T03:39:45;9.90;;;3.50;;
68910;SDS011;55953;51.650;-0.522;2023-12-07T03:42:13;8.90;;;3.50;;
68910;SDS011;55953;51.650;-0.522;2023-12-07T03:45:01;8.30;;;3.20;;
68910;SDS011;55953;51.650;-0.522;2023-12-07T03:47:29;7.70;;;3.30;;
68910;SDS011;55953;51.650;-0.522;2023-12-07T03:49:57;12.00;;;3.50;;
68910;SDS011;55953;51.650;-0.522;2023-12-07T03:52:25;7.40;;;3.20;;
68910;SDS011;55953;51.650;-0.522;2023-12-07T03:54:53;8.00;;;3.60;;
68910;SDS011;55953;51.650;-0.522;2023-12-07T03:57:21;7.30;;;3.60;;
68910;SDS011;55953;51.650;-0.522;2023-12-07T03:59:49;10.20;;;3.80;;
68910;SDS011;55953;51.650;-0.522;2023-12-07T04:02:17;8.20;;;3.30;;
68910;SDS011;55953;51.650;-0.522;2023-12-07T04:04:45;9.20;;;3.60;;
68910;SDS011;55953;51.650;-0.522;2023-12-07T04:07:13;8.60;;;3.10;;
68910;SDS011;55953;51.650;-0.522;2023-12-07T04:09:41;9.80;;;3.70;;
68910;SDS011;55953;51.650;-0.522;2023-12-07T04:12:09;7.70;;;3.70;;
68910;SDS011;55953;51.650;-0.522;2023-12-07T04:14:37;8.10;;;3.30;;
68910;SDS011;55953;51.650;-0.522;2023-12-07T04:17:04;7.50;;;3.70;;
68910;SDS011;55953;51.650;-0.522;2023-12-07T04:19:32;6.30;;;3.20;;
68910;SDS011;55953;51.650;-0.522;2023-12-07T04:22:00;6.50;;;3.50;;
68910;SDS011;55953;51.650;-0.522;2023-12-07T04:24:28;6.50;;;3.10;;
68910;SDS011;55953;51.650;-0.522;2023-12-07T04:26:56;7.30;;;3.50;;
68910;SDS011;55953;51.650;-0.522;2023-12-07T04:29:24;7.90;;;3.50;;
68910;SDS011;55953;51.650;-0.522;2023-12-07T04:31:52;7.00;;;3.20;;
68910;SDS011;55953;51.650;-0.522;2023-12-07T04:34:20;9.60;;;3.50;;
68910;SDS011;55953;51.650;-0.522;2023-12-07T04:36:49;9.50;;;3.70;;
68910;SDS011;55953;51.650;-0.522;2023-12-07T04:39:17;6.70;;;4.00;;
68910;SDS011;55953;51.650;-0.522;2023-12-07T04:41:45;8.10;;;3.40;;
68910;SDS011;55953;51.650;-0.522;2023-12-07T04:44:13;7.10;;;3.20;;
68910;SDS011;55953;51.650;-0.522;2023-12-07T04:46:42;8.10;;;3.90;;
68910;SDS011;55953;51.650;-0.522;2023-12-07T04:49:10;8.90;;;4.10;;
68910;SDS011;55953;51.650;-0.522;2023-12-07T04:51:38;6.00;;;3.50;;
68910;SDS011;55953;51.650;-0.522;2023-12-07T04:54:06;6.60;;;3.60;;
68910;SDS011;55953;51.650;-0.522;2023-12-07T04:56:45;7.30;;;3.40;;
68910;SDS011;55953;51.650;-0.522;2023-12-07T04:59:13;8.50;;;3.60;;
68910;SDS011;55953;51.650;-0.522;2023-12-07T05:01:41;5.90;;;3.20;;
68910;SDS011;55953;51.650;-0.522;2023-12-07T05:04:09;8.00;;;3.60;;
68910;SDS011;55953;51.650;-0.522;2023-12-07T05:06:37;8.30;;;3.70;;
68910;SDS011;55953;51.650;-0.522;2023-12-07T05:09:06;7.60;;;3.70;;
68910;SDS011;55953;51.650;-0.522;2023-12-07T05:11:37;9.10;;;3.40;;
68910;SDS011;55953;51.650;-0.522;2023-12-07T05:14:05;7.20;;;3.50;;
68910;SDS011;55953;51.650;-0.522;2023-12-07T05:16:33;11.20;;;4.00;;
68910;SDS011;55953;51.650;-0.522;2023-12-07T05:19:01;10.00;;;4.00;;
68910;SDS011;55953;51.650;-0.522;2023-12-07T05:21:30;8.70;;;3.70;;
68910;SDS011;55953;51.650;-0.522;2023-12-07T05:23:58;9.20;;;3.80;;
68910;SDS011;55953;51.650;-0.522;2023-12-07T05:26:26;7.00;;;3.80;;
68910;SDS011;55953;51.650;-0.522;2023-12-07T05:28:54;12.00;;;3.90;;
68910;SDS011;55953;51.650;-0.522;2023-12-07T05:31:22;5.60;;;3.60;;
68910;SDS011;55953;51.650;-0.522;2023-12-07T05:33:50;11.30;;;3.60;;
68910;SDS011;55953;51.650;-0.522;2023-12-07T05:36:18;6.30;;;3.20;;
68910;SDS011;55953;51.650;-0.522;2023-12-07T05:38:46;10.00;;;4.00;;
68910;SDS011;55953;51.650;-0.522;2023-12-07T05:41:14;7.80;;;3.80;;
68910;SDS011;55953;51.650;-0.522;2023-12-07T05:43:42;8.00;;;4.20;;
68910;SDS011;55953;51.650;-0.522;2023-12-07T05:46:10;6.80;;;3.60;;
68910;SDS011;55953;51.650;-0.522;2023-12-07T05:48:38;9.30;;;4.10;;
68910;SDS011;55953;51.650;-0.522;2023-12-07T05:51:12;9.10;;;4.10;;
68910;SDS011;55953;51.650;-0.522;2023-12-07T05:53:42;9.30;;;3.80;;
68910;SDS011;55953;51.650;-0.522;2023-12-07T05:56:12;8.00;;;3.60;;
68910;SDS011;55953;51.650;-0.522;2023-12-07T05:58:40;7.10;;;3.20;;
68910;SDS011;55953;51.650;-0.522;2023-12-07T06:01:08;9.00;;;4.00;;
68910;SDS011;55953;51.650;-0.522;2023-12-07T06:03:36;8.60;;;4.30;;
68910;SDS011;55953;51.650;-0.522;2023-12-07T06:06:04;9.10;;;4.30;;
68910;SDS011;55953;51.650;-0.522;2023-12-07T06:08:32;10.10;;;4.00;;
68910;SDS011;55953;51.650;-0.522;2023-12-07T06:11:00;12.40;;;4.20;;
68910;SDS011;55953;51.650;-0.522;2023-12-07T06:13:29;9.30;;;4.70;;
68910;SDS011;55953;51.650;-0.522;2023-12-07T06:15:57;9.00;;;4.10;;
68910;SDS011;55953;51.650;-0.522;2023-12-07T06:18:25;10.10;;;3.70;;
68910;SDS011;55953;51.650;-0.522;2023-12-07T06:20:53;8.80;;;4.50;;
68910;SDS011;55953;51.650;-0.522;2023-12-07T06:23:21;10.00;;;4.30;;
68910;SDS011;55953;51.650;-0.522;2023-12-07T06:25:49;7.40;;;4.00;;
68910;SDS011;55953;51.650;-0.522;2023-12-07T06:28:17;8.20;;;4.30;;
68910;SDS011;55953;51.650;-0.522;2023-12-07T06:30:46;10.60;;;4.20;;
68910;SDS011;55953;51.650;-0.522;2023-12-07T06:33:14;9.40;;;4.70;;
68910;SDS011;55953;51.650;-0.522;2023-12-07T06:35:42;12.10;;;5.20;;
68910;SDS011;55953;51.650;-0.522;2023-12-07T06:38:09;10.00;;;5.00;;
68910;SDS011;55953;51.650;-0.522;2023-12-07T06:40:37;9.10;;;4.60;;
68910;SDS011;55953;51.650;-0.522;2023-12-07T06:43:06;11.70;;;4.90;;
68910;SDS011;55953;51.650;-0.522;2023-12-07T06:45:33;10.80;;;4.50;;
68910;SDS011;55953;51.650;-0.522;2023-12-07T06:48:02;7.90;;;4.70;;
68910;SDS011;55953;51.650;-0.522;2023-12-07T06:50:30;14.00;;;5.00;;
68910;SDS011;55953;51.650;-0.522;2023-12-07T06:52:59;10.30;;;4.60;;
68910;SDS011;55953;51.650;-0.522;2023-12-07T06:55:27;10.00;;;4.60;;
68910;SDS011;55953;51.650;-0.522;2023-12-07T06:57:55;10.40;;;4.60;;
68910;SDS011;55953;51.650;-0.522;2023-12-07T07:00:23;8.90;;;4.70;;
68910;SDS011;55953;51.650;-0.522;2023-12-07T07:02:52;11.30;;;5.10;;
68910;SDS011;55953;51.650;-0.522;2023-12-07T07:05:20;9.60;;;5.10;;
68910;SDS011;55953;51.650;-0.522;2023-12-07T07:07:48;10.30;;;4.80;;
68910;SDS011;55953;51.650;-0.522;2023-12-07T07:10:16;11.10;;;4.60;;
68910;SDS011;55953;51.650;-0.522;2023-12-07T07:12:44;11.80;;;4.70;;
68910;SDS011;55953;51.650;-0.522;2023-12-07T07:15:12;9.20;;;5.10;;
68910;SDS011;55953;51.650;-0.522;2023-12-07T07:17:40;13.10;;;4.70;;
68910;SDS011;55953;51.650;-0.522;2023-12-07T07:20:09;9.00;;;4.60;;
68910;SDS011;55953;51.650;-0.522;2023-12-07T07:22:37;9.50;;;5.10;;
68910;SDS011;55953;51.650;-0.522;2023-12-07T07:25:05;10.30;;;5.20;;
68910;SDS011;55953;51.650;-0.522;2023-12-07T07:27:33;13.00;;;5.40;;
68910;SDS011;55953;51.650;-0.522;2023-12-07T07:30:01;12.50;;;5.60;;
68910;SDS011;55953;51.650;-0.522;2023-12-07T07:32:32;10.00;;;5.50;;
68910;SDS011;55953;51.650;-0.522;2023-12-07T07:35:00;13.00;;;5.80;;
68910;SDS011;55953;51.650;-0.522;2023-12-07T07:37:28;11.40;;;5.00;;
68910;SDS011;55953;51.650;-0.522;2023-12-07T07:39:56;12.70;;;4.80;;
68910;SDS011;55953;51.650;-0.522;2023-12-07T07:42:24;10.10;;;5.20;;
68910;SDS011;55953;51.650;-0.522;2023-12-07T07:44:52;12.60;;;5.20;;
68910;SDS011;55953;51.650;-0.522;2023-12-07T07:47:20;10.50;;;5.00;;
68910;SDS011;55953;51.650;-0.522;2023-12-07T07:49:48;10.40;;;5.20;;
68910;SDS011;55953;51.650;-0.522;2023-12-07T07:52:16;12.80;;;5.10;;
68910;SDS011;55953;51.650;-0.522;2023-12-07T07:54:44;10.40;;;5.10;;
68910;SDS011;55953;51.650;-0.522;2023-12-07T07:57:12;13.00;;;5.30;;
68910;SDS011;55953;51.650;-0.522;2023-12-07T07:59:40;10.70;;;4.90;;
68910;SDS011;55953;51.650;-0.522;2023-12-07T08:02:08;11.20;;;5.70;;
68910;SDS011;55953;51.650;-0.522;2023-12-07T08:04:36;11.20;;;5.10;;
68910;SDS011;55953;51.650;-0.522;2023-12-07T08:07:04;10.30;;;5.70;;
68910;SDS011;55953;51.650;-0.522;2023-12-07T08:09:32;10.70;;;4.80;;
68910;SDS011;55953;51.650;-0.522;2023-12-07T08:12:00;10.20;;;5.20;;
68910;SDS011;55953;51.650;-0.522;2023-12-07T08:14:29;12.30;;;5.30;;
68910;SDS011;55953;51.650;-0.522;2023-12-07T08:16:57;12.80;;;5.40;;
68910;SDS011;55953;51.650;-0.522;2023-12-07T08:19:25;10.30;;;5.00;;
68910;SDS011;55953;51.650;-0.522;2023-12-07T08:21:53;9.30;;;4.80;;
68910;SDS011;55953;51.650;-0.522;2023-12-07T08:24:20;10.30;;;5.00;;
68910;SDS011;55953;51.650;-0.522;2023-12-07T08:26:48;9.10;;;5.00;;
68910;SDS011;55953;51.650;-0.522;2023-12-07T08:29:16;14.80;;;5.60;;
68910;SDS011;55953;51.650;-0.522;2023-12-07T08:31:44;10.80;;;4.50;;
68910;SDS011;55953;51.650;-0.522;2023-12-07T08:34:14;9.80;;;4.80;;
68910;SDS011;55953;51.650;-0.522;2023-12-07T08:36:42;9.50;;;5.00;;
68910;SDS011;55953;51.650;-0.522;2023-12-07T08:39:10;10.20;;;4.90;;
68910;SDS011;55953;51.650;-0.522;2023-12-07T08:41:39;8.10;;;4.60;;
68910;SDS011;55953;51.650;-0.522;2023-12-07T08:44:07;13.90;;;5.50;;
68910;SDS011;55953;51.650;-0.522;2023-12-07T08:46:35;10.70;;;4.50;;
68910;SDS011;55953;51.650;-0.522;2023-12-07T08:49:03;11.60;;;4.80;;
68910;SDS011;55953;51.650;-0.522;2023-12-07T08:51:31;11.40;;;5.20;;
68910;SDS011;55953;51.650;-0.522;2023-12-07T08:53:59;12.90;;;4.90;;
68910;SDS011;55953;51.650;-0.522;2023-12-07T08:56:27;12.30;;;4.60;;
68910;SDS011;55953;51.650;-0.522;2023-12-07T08:58:55;9.20;;;4.50;;
68910;SDS011;55953;51.650;-0.522;2023-12-07T09:01:23;8.00;;;4.30;;
68910;SDS011;55953;51.650;-0.522;2023-12-07T09:03:59;7.90;;;4.40;;
68910;SDS011;55953;51.650;-0.522;2023-12-07T09:06:27;11.30;;;4.00;;
68910;SDS011;55953;51.650;-0.522;2023-12-07T09:08:56;10.00;;;4.30;;
68910;SDS011;55953;51.650;-0.522;2023-12-07T09:11:24;13.80;;;4.50;;
68910;SDS011;55953;51.650;-0.522;2023-12-07T09:13:52;8.70;;;4.00;;
68910;SDS011;55953;51.650;-0.522;2023-12-07T09:16:20;14.10;;;4.60;;
68910;SDS011;55953;51.650;-0.522;2023-12-07T09:18:49;11.50;;;4.20;;
68910;SDS011;55953;51.650;-0.522;2023-12-07T09:21:18;8.00;;;4.00;;
68910;SDS011;55953;51.650;-0.522;2023-12-07T09:23:46;12.60;;;4.40;;
68910;SDS011;55953;51.650;-0.522;2023-12-07T09:26:13;8.80;;;4.00;;
68910;SDS011;55953;51.650;-0.522;2023-12-07T09:28:42;9.40;;;4.60;;
68910;SDS011;55953;51.650;-0.522;2023-12-07T09:31:10;9.10;;;3.90;;
68910;SDS011;55953;51.650;-0.522;2023-12-07T09:33:38;8.70;;;3.80;;
68910;SDS011;55953;51.650;-0.522;2023-12-07T09:36:06;9.10;;;4.00;;
68910;SDS011;55953;51.650;-0.522;2023-12-07T09:38:36;10.50;;;4.40;;
68910;SDS011;55953;51.650;-0.522;2023-12-07T09:41:04;7.80;;;3.40;;
68910;SDS011;55953;51.650;-0.522;2023-12-07T09:43:32;7.40;;;3.70;;
68910;SDS011;55953;51.650;-0.522;2023-12-07T09:46:00;8.60;;;3.70;;
68910;SDS011;55953;51.650;-0.522;2023-12-07T09:48:28;8.20;;;4.00;;
68910;SDS011;55953;51.650;-0.522;2023-12-07T09:50:59;6.80;;;3.30;;
68910;SDS011;55953;51.650;-0.522;2023-12-07T09:53:29;10.90;;;3.40;;
68910;SDS011;55953;51.650;-0.522;2023-12-07T09:55:58;7.50;;;3.20;;
68910;SDS011;55953;51.650;-0.522;2023-12-07T09:58:26;7.50;;;3.30;;
68910;SDS011;55953;51.650;-0.522;2023-12-07T10:01:07;6.90;;;2.50;;
68910;SDS011;55953;51.650;-0.522;2023-12-07T10:03:35;8.20;;;3.10;;
68910;SDS011;55953;51.650;-0.522;2023-12-07T10:06:03;9.20;;;2.60;;
68910;SDS011;55953;51.650;-0.522;2023-12-07T10:08:33;5.50;;;2.70;;
68910;SDS011;55953;51.650;-0.522;2023-12-07T10:11:09;8.30;;;2.70;;
68910;SDS011;55953;51.650;-0.522;2023-12-07T10:13:39;8.60;;;2.70;;
68910;SDS011;55953;51.650;-0.522;2023-12-07T10:16:11;7.30;;;2.70;;
68910;SDS011;55953;51.650;-0.522;2023-12-07T10:18:41;9.60;;;2.90;;
68910;SDS011;55953;51.650;-0.522;2023-12-07T10:21:12;6.80;;;2.30;;
68910;SDS011;55953;51.650;-0.522;2023-12-07T10:23:42;8.70;;;3.00;;
68910;SDS011;55953;51.650;-0.522;2023-12-07T10:26:17;9.10;;;2.70;;
68910;SDS011;55953;51.650;-0.522;2023-12-07T10:28:52;9.10;;;2.90;;
68910;SDS011;55953;51.650;-0.522;2023-12-07T10:31:22;9.90;;;3.10;;
68910;SDS011;55953;51.650;-0.522;2023-12-07T10:33:51;8.50;;;2.80;;
68910;SDS011;55953;51.650;-0.522;2023-12-07T10:36:20;7.60;;;2.70;;
68910;SDS011;55953;51.650;-0.522;2023-12-07T10:38:48;5.40;;;2.40;;
68910;SDS011;55953;51.650;-0.522;2023-12-07T10:41:20;6.10;;;2.40;;
68910;SDS011;55953;51.650;-0.522;2023-12-07T10:43:59;7.00;;;2.70;;
68910;SDS011;55953;51.650;-0.522;2023-12-07T10:46:29;7.20;;;2.30;;
68910;SDS011;55953;51.650;-0.522;2023-12-07T10:49:00;10.00;;;2.50;;
68910;SDS011;55953;51.650;-0.522;2023-12-07T10:51:41;7.80;;;2.70;;
68910;SDS011;55953;51.650;-0.522;2023-12-07T10:54:16;4.20;;;2.60;;
68910;SDS011;55953;51.650;-0.522;2023-12-07T10:56:48;6.80;;;2.50;;
68910;SDS011;55953;51.650;-0.522;2023-12-07T10:59:18;5.60;;;2.40;;
68910;SDS011;55953;51.650;-0.522;2023-12-07T11:01:57;5.70;;;2.30;;
68910;SDS011;55953;51.650;-0.522;2023-12-07T11:04:26;7.00;;;2.50;;
68910;SDS011;55953;51.650;-0.522;2023-12-07T11:07:00;8.90;;;2.70;;
68910;SDS011;55953;51.650;-0.522;2023-12-07T11:09:39;7.80;;;2.40;;
68910;SDS011;55953;51.650;-0.522;2023-12-07T11:12:18;8.00;;;2.90;;
68910;SDS011;55953;51.650;-0.522;2023-12-07T11:14:51;6.80;;;2.50;;
68910;SDS011;55953;51.650;-0.522;2023-12-07T11:17:20;8.70;;;2.80;;
68910;SDS011;55953;51.650;-0.522;2023-12-07T11:19:50;7.50;;;2.70;;
68910;SDS011;55953;51.650;-0.522;2023-12-07T11:22:19;7.50;;;2.40;;
68910;SDS011;55953;51.650;-0.522;2023-12-07T11:24:55;6.50;;;2.60;;
68910;SDS011;55953;51.650;-0.522;2023-12-07T11:27:30;9.10;;;2.70;;
68910;SDS011;55953;51.650;-0.522;2023-12-07T11:29:59;7.50;;;2.40;;
68910;SDS011;55953;51.650;-0.522;2023-12-07T11:32:29;5.70;;;2.40;;
68910;SDS011;55953;51.650;-0.522;2023-12-07T11:35:03;8.30;;;2.50;;
68910;SDS011;55953;51.650;-0.522;2023-12-07T11:38:00;7.10;;;2.80;;
68910;SDS011;55953;51.650;-0.522;2023-12-07T11:40:29;5.50;;;1.90;;
68910;SDS011;55953;51.650;-0.522;2023-12-07T11:43:00;7.40;;;2.60;;
68910;SDS011;55953;51.650;-0.522;2023-12-07T11:45:47;8.20;;;2.30;;
68910;SDS011;55953;51.650;-0.522;2023-12-07T11:48:16;4.30;;;2.20;;
68910;SDS011;55953;51.650;-0.522;2023-12-07T11:51:00;5.20;;;2.30;;
68910;SDS011;55953;51.650;-0.522;2023-12-07T11:53:33;4.10;;;2.30;;
68910;SDS011;55953;51.650;-0.522;2023-12-07T11:56:05;6.90;;;2.60;;
68910;SDS011;55953;51.650;-0.522;2023-12-07T11:58:38;7.10;;;2.50;;
68910;SDS011;55953;51.650;-0.522;2023-12-07T12:01:08;9.60;;;3.10;;
68910;SDS011;55953;51.650;-0.522;2023-12-07T12:03:37;7.10;;;2.50;;
68910;SDS011;55953;51.650;-0.522;2023-12-07T12:06:06;6.30;;;2.50;;
68910;SDS011;55953;51.650;-0.522;2023-12-07T12:08:40;5.60;;;2.50;;
68910;SDS011;55953;51.650;-0.522;2023-12-07T12:11:09;7.80;;;2.40;;
68910;SDS011;55953;51.650;-0.522;2023-12-07T12:13:37;5.90;;;2.30;;
68910;SDS011;55953;51.650;-0.522;2023-12-07T12:16:06;6.40;;;2.70;;
68910;SDS011;55953;51.650;-0.522;2023-12-07T12:18:36;5.00;;;2.20;;
68910;SDS011;55953;51.650;-0.522;2023-12-07T12:21:07;6.40;;;2.60;;
68910;SDS011;55953;51.650;-0.522;2023-12-07T12:23:36;6.10;;;2.20;;
68910;SDS011;55953;51.650;-0.522;2023-12-07T12:26:06;5.30;;;2.10;;
68910;SDS011;55953;51.650;-0.522;2023-12-07T12:28:36;5.60;;;1.80;;
68910;SDS011;55953;51.650;-0.522;2023-12-07T12:31:11;7.50;;;2.20;;
68910;SDS011;55953;51.650;-0.522;2023-12-07T12:33:39;6.00;;;2.10;;
68910;SDS011;55953;51.650;-0.522;2023-12-07T12:36:08;4.80;;;2.00;;
68910;SDS011;55953;51.650;-0.522;2023-12-07T12:38:38;7.40;;;2.30;;
68910;SDS011;55953;51.650;-0.522;2023-12-07T12:41:11;7.20;;;2.20;;
68910;SDS011;55953;51.650;-0.522;2023-12-07T12:43:39;3.90;;;1.90;;
68910;SDS011;55953;51.650;-0.522;2023-12-07T12:46:08;5.10;;;1.90;;
68910;SDS011;55953;51.650;-0.522;2023-12-07T12:48:36;8.00;;;2.00;;
68910;SDS011;55953;51.650;-0.522;2023-12-07T12:51:10;4.60;;;2.20;;
68910;SDS011;55953;51.650;-0.522;2023-12-07T12:53:45;9.70;;;2.30;;
68910;SDS011;55953;51.650;-0.522;2023-12-07T12:56:19;8.40;;;2.00;;
68910;SDS011;55953;51.650;-0.522;2023-12-07T12:58:52;4.50;;;2.00;;
68910;SDS011;55953;51.650;-0.522;2023-12-07T13:01:23;6.70;;;1.90;;
68910;SDS011;55953;51.650;-0.522;2023-12-07T13:03:52;7.10;;;1.90;;
68910;SDS011;55953;51.650;-0.522;2023-12-07T13:06:20;6.70;;;1.90;;
68910;SDS011;55953;51.650;-0.522;2023-12-07T13:08:49;5.40;;;2.20;;
68910;SDS011;55953;51.650;-0.522;2023-12-07T13:11:19;6.30;;;2.00;;
68910;SDS011;55953;51.650;-0.522;2023-12-07T13:13:48;6.30;;;2.20;;
68910;SDS011;55953;51.650;-0.522;2023-12-07T13:16:16;4.90;;;2.20;;
68910;SDS011;55953;51.650;-0.522;2023-12-07T13:18:44;4.50;;;2.10;;
68910;SDS011;55953;51.650;-0.522;2023-12-07T13:21:12;7.00;;;2.30;;
68910;SDS011;55953;51.650;-0.522;2023-12-07T13:23:44;6.20;;;2.60;;
68910;SDS011;55953;51.650;-0.522;2023-12-07T13:26:14;8.40;;;2.50;;
68910;SDS011;55953;51.650;-0.522;2023-12-07T13:28:42;9.40;;;5.10;;
68910;SDS011;55953;51.650;-0.522;2023-12-07T13:31:11;6.80;;;4.60;;
68910;SDS011;55953;51.650;-0.522;2023-12-07T13:33:39;7.50;;;3.30;;
68910;SDS011;55953;51.650;-0.522;2023-12-07T13:36:20;7.50;;;2.70;;
68910;SDS011;55953;51.650;-0.522;2023-12-07T13:38:50;6.10;;;2.60;;
68910;SDS011;55953;51.650;-0.522;2023-12-07T13:41:19;5.50;;;2.30;;
68910;SDS011;55953;51.650;-0.522;2023-12-07T13:43:48;8.30;;;2.40;;
68910;SDS011;55953;51.650;-0.522;2023-12-07T13:46:17;5.60;;;2.40;;
68910;SDS011;55953;51.650;-0.522;2023-12-07T13:48:45;8.40;;;2.90;;
68910;SDS011;55953;51.650;-0.522;2023-12-07T13:51:15;9.10;;;2.60;;
68910;SDS011;55953;51.650;-0.522;2023-12-07T13:53:43;7.20;;;2.40;;
68910;SDS011;55953;51.650;-0.522;2023-12-07T13:56:11;12.00;;;2.90;;
68910;SDS011;55953;51.650;-0.522;2023-12-07T13:58:39;7.00;;;3.80;;
68910;SDS011;55953;51.650;-0.522;2023-12-07T14:01:07;7.30;;;2.70;;
68910;SDS011;55953;51.650;-0.522;2023-12-07T14:03:35;8.40;;;2.70;;
68910;SDS011;55953;51.650;-0.522;2023-12-07T14:06:05;8.10;;;3.10;;
68910;SDS011;55953;51.650;-0.522;2023-12-07T14:08:48;7.90;;;2.50;;
68910;SDS011;55953;51.650;-0.522;2023-12-07T14:11:19;7.60;;;2.70;;
68910;SDS011;55953;51.650;-0.522;2023-12-07T14:13:47;7.00;;;2.80;;
68910;SDS011;55953;51.650;-0.522;2023-12-07T14:16:16;7.00;;;2.60;;
68910;SDS011;55953;51.650;-0.522;2023-12-07T14:18:58;8.80;;;2.90;;
68910;SDS011;55953;51.650;-0.522;2023-12-07T14:21:41;7.90;;;2.70;;
68910;SDS011;55953;51.650;-0.522;2023-12-07T14:24:23;6.90;;;2.70;;
68910;SDS011;55953;51.650;-0.522;2023-12-07T14:26:53;7.60;;;2.90;;
68910;SDS011;55953;51.650;-0.522;2023-12-07T14:29:22;6.80;;;2.70;;
68910;SDS011;55953;51.650;-0.522;2023-12-07T14:31:54;5.50;;;2.40;;
68910;SDS011;55953;51.650;-0.522;2023-12-07T14:34:23;5.50;;;2.60;;
68910;SDS011;55953;51.650;-0.522;2023-12-07T14:37:03;7.40;;;2.70;;
68910;SDS011;55953;51.650;-0.522;2023-12-07T14:39:35;9.20;;;3.30;;
68910;SDS011;55953;51.650;-0.522;2023-12-07T14:42:04;6.80;;;2.80;;
68910;SDS011;55953;51.650;-0.522;2023-12-07T14:44:33;6.20;;;2.40;;